Kalundborg, Denmark
Current Conditions -  °F | °C
As of 6:50 AM on Sunday 23 Nov 2014 (Local Time) from EKRK Reporting Station
Broken Clouds Broken Clouds  
Wind Chill: 35°   Ceiling: 1800
Heat Index: 43°   Visibility: 6mi
Dew Point: 41°   Wind: 18mph
Humidity: 93%   Direction: 140°SE
Pressure: 30.21"   Gusts: NA
Location:  55.68°N, 11.1°E
Report Text: EKRK 230550Z AUTO 14016KT 9000NDV SCT014/// BKN018///BKN021/// 06/05 Q1023
Loading
Personal Weather Stations






























Interactive Weather Map New forecast layout! Learn more

10-Day Weather Forecast

Advertisements
Track Severe Weather on mobile